createdAt,value
2017-01-14T00:00:32.243Z,997.230
2017-01-14T00:03:43.137Z,997.276
2017-01-14T00:06:41.045Z,997.260
2017-01-14T00:09:46.027Z,997.239
2017-01-14T00:12:50.773Z,997.213
2017-01-14T00:16:01.616Z,997.193
2017-01-14T00:19:06.768Z,997.209
2017-01-14T00:22:05.676Z,997.152
2017-01-14T00:25:10.275Z,997.117
2017-01-14T00:28:10.119Z,997.033
2017-01-14T00:34:24.506Z,997.040
2017-01-14T00:37:29.339Z,997.063
2017-01-14T00:40:39.928Z,997.108
2017-01-14T00:43:44.919Z,997.095
2017-01-14T00:49:54.116Z,997.157
2017-01-14T00:52:57.822Z,997.171
2017-01-14T00:56:01.763Z,997.207
2017-01-14T00:59:07.036Z,997.249
2017-01-14T01:02:10.991Z,997.261
2017-01-14T01:05:08.712Z,997.335
2017-01-14T01:08:19.125Z,997.361
2017-01-14T01:11:18.229Z,997.420
2017-01-14T01:14:28.954Z,997.408
2017-01-14T01:17:32.969Z,997.398
2017-01-14T01:23:35.659Z,997.383
2017-01-14T01:26:40.343Z,997.375
2017-01-14T01:29:51.070Z,997.381
2017-01-14T01:35:59.894Z,997.435
2017-01-14T01:39:03.982Z,997.457
2017-01-14T01:42:08.139Z,997.487
2017-01-14T01:45:12.018Z,997.467
2017-01-14T01:48:15.956Z,997.406
2017-01-14T01:51:19.954Z,997.452
2017-01-14T01:54:17.757Z,997.482
2017-01-14T01:57:28.583Z,997.551
2017-01-14T02:00:32.821Z,997.545
2017-01-14T02:03:36.657Z,997.501
2017-01-14T02:06:41.871Z,997.512
2017-01-14T02:09:39.757Z,997.536
2017-01-14T02:12:43.927Z,997.595
2017-01-14T02:15:54.662Z,997.635
2017-01-14T02:18:53.864Z,997.662
2017-01-14T02:22:04.611Z,997.728
2017-01-14T02:28:06.910Z,997.782
2017-01-14T02:31:17.667Z,997.821
2017-01-14T02:34:16.619Z,997.876
2017-01-14T02:37:25.316Z,997.904
2017-01-14T02:40:24.601Z,997.882
2017-01-14T02:43:35.434Z,997.888
2017-01-14T02:46:39.431Z,997.877
2017-01-14T02:49:43.452Z,997.899
2017-01-14T02:52:47.424Z,997.892
2017-01-14T02:55:50.967Z,997.880
2017-01-14T02:58:48.924Z,997.893
2017-01-14T03:01:53.760Z,997.915
2017-01-14T03:05:04.527Z,997.916
2017-01-14T03:08:02.459Z,997.970
2017-01-14T03:11:07.050Z,998.006
2017-01-14T03:14:11.845Z,998.003
2017-01-14T03:17:16.561Z,998.040
2017-01-14T03:20:27.334Z,998.073
2017-01-14T03:26:35.740Z,998.054
2017-01-14T03:29:33.792Z,998.048
2017-01-14T03:32:37.825Z,998.073
2017-01-14T03:35:48.589Z,998.071
2017-01-14T03:38:46.289Z,998.116
2017-01-14T03:41:56.955Z,998.142
2017-01-14T03:44:54.735Z,998.169
2017-01-14T03:48:05.389Z,998.190
2017-01-14T03:51:09.261Z,998.189
2017-01-14T03:54:07.011Z,998.191
2017-01-14T03:57:17.838Z,998.216
2017-01-14T04:00:21.812Z,998.249
2017-01-14T04:03:26.111Z,998.241
2017-01-14T04:06:23.887Z,998.290
2017-01-14T04:09:28.583Z,998.341
2017-01-14T04:12:33.387Z,998.410
2017-01-14T04:15:44.200Z,998.512
2017-01-14T04:18:42.107Z,998.572
2017-01-14T04:24:51.222Z,998.704
2017-01-14T04:28:01.888Z,998.730
2017-01-14T04:34:04.339Z,998.730
2017-01-14T04:37:08.998Z,998.698
2017-01-14T04:40:13.865Z,998.701
2017-01-14T04:49:34.283Z,998.833
2017-01-14T04:52:32.170Z,998.903
2017-01-14T04:55:36.793Z,998.961
2017-01-14T04:58:47.551Z,998.983
2017-01-14T05:01:52.789Z,999.047
2017-01-14T05:04:50.938Z,999.050
2017-01-14T05:07:55.486Z,999.025
2017-01-14T05:14:04.879Z,999.021
2017-01-14T05:17:09.679Z,999.128
2017-01-14T05:20:20.393Z,999.199
2017-01-14T05:23:24.444Z,999.265
2017-01-14T05:26:29.528Z,999.278
2017-01-14T05:29:34.575Z,999.360
2017-01-14T05:32:28.620Z,999.385
2017-01-14T05:35:44.548Z,999.425
2017-01-14T05:41:53.539Z,999.595
2017-01-14T05:44:51.404Z,999.661
2017-01-14T05:48:02.134Z,999.731
2017-01-14T05:51:00.279Z,999.752
2017-01-14T05:54:04.903Z,999.768
2017-01-14T05:57:15.719Z,999.825
2017-01-14T06:00:13.761Z,999.869
2017-01-14T06:03:23.857Z,999.951
2017-01-14T06:06:27.701Z,1000.001
2017-01-14T06:09:25.770Z,1000.088
2017-01-14T06:15:34.000Z,1000.162
2017-01-14T06:18:43.201Z,1000.217
2017-01-14T06:24:48.468Z,1000.240
2017-01-14T06:27:44.035Z,1000.259
2017-01-14T06:30:45.537Z,1000.319
2017-01-14T06:33:53.497Z,1000.367
2017-01-14T06:36:49.353Z,1000.447
2017-01-14T06:42:57.018Z,1000.490
2017-01-14T06:46:01.628Z,1000.524
2017-01-14T06:49:06.509Z,1000.601
2017-01-14T06:52:11.023Z,1000.586
2017-01-14T06:55:15.728Z,1000.595
2017-01-14T06:58:26.094Z,1000.605
2017-01-14T07:01:31.036Z,1000.640
2017-01-14T07:04:28.799Z,1000.649
2017-01-14T07:07:33.472Z,1000.643
2017-01-14T07:10:44.215Z,1000.705
2017-01-14T07:19:55.724Z,1000.766
2017-01-14T07:22:59.556Z,1000.818
2017-01-14T07:26:03.257Z,1000.880
2017-01-14T07:29:00.782Z,1000.888
2017-01-14T07:32:05.692Z,1000.889
2017-01-14T07:38:14.618Z,1000.875
2017-01-14T07:41:18.742Z,1000.896
2017-01-14T07:44:29.560Z,1000.954
2017-01-14T07:50:31.662Z,1001.037
2017-01-14T07:53:41.849Z,1001.062
2017-01-14T07:56:46.866Z,1001.066
2017-01-14T07:59:50.320Z,1001.097
2017-01-14T08:02:55.413Z,1001.147
2017-01-14T08:05:58.795Z,1001.188
2017-01-14T08:09:02.356Z,1001.222
2017-01-14T08:12:06.215Z,1001.224
2017-01-14T08:15:09.981Z,1001.265
2017-01-14T08:18:13.657Z,1001.272
2017-01-14T08:21:18.349Z,1001.245
2017-01-14T08:24:22.297Z,1001.311
2017-01-14T08:30:30.518Z,1001.332
2017-01-14T08:33:33.890Z,1001.355
2017-01-14T08:36:30.921Z,1001.365
2017-01-14T08:42:45.250Z,1001.404
2017-01-14T08:48:51.908Z,1001.473
2017-01-14T08:58:03.196Z,1001.542
2017-01-14T09:04:10.321Z,1001.599
2017-01-14T09:07:12.807Z,1001.627
2017-01-14T09:13:21.520Z,1001.726
2017-01-14T09:22:29.564Z,1001.747
2017-01-14T09:28:35.596Z,1001.803
2017-01-14T09:31:38.518Z,1001.812
2017-01-14T09:34:42.176Z,1001.851
2017-01-14T09:37:46.832Z,1001.810
2017-01-14T09:40:50.737Z,1001.850
2017-01-14T09:46:59.706Z,1001.979
2017-01-14T09:50:03.022Z,1002.014
2017-01-14T09:53:07.169Z,1002.044
2017-01-14T09:56:10.663Z,1002.098
2017-01-14T09:59:14.441Z,1002.107
2017-01-14T10:05:23.313Z,1002.142
2017-01-14T10:11:31.651Z,1002.158
2017-01-14T10:14:35.134Z,1002.216
2017-01-14T10:26:46.205Z,1002.273
2017-01-14T10:33:00.889Z,1002.282
2017-01-14T10:36:04.123Z,1002.361
2017-01-14T10:39:08.130Z,1002.345
2017-01-14T10:42:11.881Z,1002.371
2017-01-14T10:45:15.911Z,1002.356
2017-01-14T10:48:19.736Z,1002.401
2017-01-14T10:54:27.244Z,1002.439
2017-01-14T11:00:35.214Z,1002.371
2017-01-14T11:03:38.937Z,1002.363
2017-01-14T11:12:52.571Z,1002.339
2017-01-14T11:15:56.722Z,1002.257
2017-01-14T11:19:00.616Z,1002.160
2017-01-14T11:22:05.170Z,1002.085
2017-01-14T11:31:19.626Z,1002.008
2017-01-14T11:34:23.689Z,1001.997
2017-01-14T11:37:28.427Z,1001.993
2017-01-14T11:40:32.352Z,1001.961
2017-01-14T11:43:37.533Z,1001.953
2017-01-14T11:46:42.651Z,1001.921
2017-01-14T11:49:46.836Z,1001.936
2017-01-14T11:52:51.460Z,1001.922
2017-01-14T11:59:01.356Z,1001.926
2017-01-14T12:02:05.294Z,1001.973
2017-01-14T12:05:10.195Z,1001.985
2017-01-14T12:11:18.444Z,1001.890
2017-01-14T12:14:22.174Z,1001.968
2017-01-14T12:17:26.008Z,1001.967
2017-01-14T12:20:23.389Z,1001.990
2017-01-14T12:23:33.818Z,1002.070
2017-01-14T12:26:37.360Z,1002.121
2017-01-14T12:29:40.845Z,1002.164
2017-01-14T12:32:44.777Z,1002.177
2017-01-14T12:38:52.510Z,1002.240
2017-01-14T12:41:56.840Z,1002.230
2017-01-14T12:45:00.937Z,1002.287
2017-01-14T12:54:14.553Z,1002.376
2017-01-14T12:57:12.223Z,1002.460
2017-01-14T13:00:22.668Z,1002.479
2017-01-14T13:03:26.613Z,1002.503
2017-01-14T13:06:31.674Z,1002.522
2017-01-14T13:09:36.229Z,1002.610
2017-01-14T13:12:40.197Z,1002.650
2017-01-14T13:15:44.256Z,1002.691
2017-01-14T13:18:49.244Z,1002.722
2017-01-14T13:21:53.110Z,1002.751
2017-01-14T13:24:57.432Z,1002.769
2017-01-14T13:28:00.792Z,1002.806
2017-01-14T13:34:08.888Z,1002.952
2017-01-14T13:37:12.925Z,1002.921
2017-01-14T13:40:17.336Z,1002.917
2017-01-14T13:43:21.607Z,1002.950
2017-01-14T13:46:25.817Z,1002.963
2017-01-14T13:49:29.948Z,1002.989
2017-01-14T13:52:33.919Z,1003.024
2017-01-14T13:55:37.632Z,1003.062
2017-01-14T13:58:35.530Z,1003.076
2017-01-14T14:04:45.573Z,1003.048
2017-01-14T14:07:50.992Z,1003.088
2017-01-14T14:11:02.066Z,1003.063
2017-01-14T14:14:06.344Z,1003.048
2017-01-14T14:17:04.098Z,1003.074
2017-01-14T14:20:14.995Z,1003.122
2017-01-14T14:26:23.147Z,1003.164
2017-01-14T14:29:27.197Z,1003.177
2017-01-14T14:35:36.299Z,1003.256
2017-01-14T14:38:39.644Z,1003.324
2017-01-14T14:47:52.230Z,1003.503
2017-01-14T14:50:49.914Z,1003.520
2017-01-14T14:54:00.367Z,1003.522
2017-01-14T14:57:04.045Z,1003.510
2017-01-14T15:03:12.810Z,1003.568
2017-01-14T15:06:17.377Z,1003.634
2017-01-14T15:09:21.007Z,1003.626
2017-01-14T15:12:25.047Z,1003.641
2017-01-14T15:15:29.210Z,1003.652
2017-01-14T15:21:38.218Z,1003.708
2017-01-14T15:24:41.971Z,1003.728
2017-01-14T15:27:38.736Z,1003.739
2017-01-14T15:30:49.703Z,1003.778
2017-01-14T15:33:53.734Z,1003.801
2017-01-14T15:36:57.924Z,1003.788
2017-01-14T15:40:01.851Z,1003.779
2017-01-14T15:46:10.391Z,1003.735
2017-01-14T15:49:08.254Z,1003.753
2017-01-14T15:52:13.238Z,1003.797
2017-01-14T15:55:18.090Z,1003.853
2017-01-14T15:58:23.000Z,1003.878
2017-01-14T16:01:28.008Z,1003.871
2017-01-14T16:04:33.048Z,1003.879
2017-01-14T16:07:43.908Z,1003.880
2017-01-14T16:13:52.872Z,1003.895
2017-01-14T16:20:02.102Z,1003.926
2017-01-14T16:23:04.882Z,1003.911
2017-01-14T16:26:07.312Z,1003.968
2017-01-14T16:29:04.064Z,1004.044
2017-01-14T16:32:08.165Z,1004.051
2017-01-14T16:35:11.445Z,1004.042
2017-01-14T16:38:12.530Z,1004.081
2017-01-14T16:41:13.768Z,1004.114
2017-01-14T16:44:15.555Z,1004.122
2017-01-14T16:47:17.597Z,1004.168
2017-01-14T16:50:18.687Z,1004.243
2017-01-14T16:53:23.455Z,1004.219
2017-01-14T16:56:27.661Z,1004.239
2017-01-14T16:59:32.280Z,1004.249
2017-01-14T17:02:36.940Z,1004.276
2017-01-14T17:05:41.817Z,1004.314
2017-01-14T17:08:46.270Z,1004.301
2017-01-14T17:11:57.315Z,1004.338
2017-01-14T17:21:10.408Z,1004.393
2017-01-14T17:24:08.223Z,1004.445
2017-01-14T17:27:18.436Z,1004.443
2017-01-14T17:30:16.432Z,1004.496
2017-01-14T17:33:21.166Z,1004.509
2017-01-14T17:39:36.842Z,1004.556
2017-01-14T17:42:34.575Z,1004.591
2017-01-14T17:45:39.305Z,1004.639
2017-01-14T17:48:50.213Z,1004.626
2017-01-14T17:51:54.027Z,1004.573
2017-01-14T17:54:58.212Z,1004.603
2017-01-14T17:57:56.020Z,1004.592
2017-01-14T18:01:06.838Z,1004.663
2017-01-14T18:04:10.503Z,1004.666
2017-01-14T18:10:13.030Z,1004.713
2017-01-14T18:13:17.759Z,1004.721
2017-01-14T18:16:28.152Z,1004.748
2017-01-14T18:19:27.156Z,1004.714
2017-01-14T18:28:44.212Z,1004.714
2017-01-14T18:31:47.645Z,1004.735
2017-01-14T18:34:52.328Z,1004.731
2017-01-14T18:37:49.930Z,1004.805
2017-01-14T18:44:06.421Z,1004.822
2017-01-14T18:47:04.438Z,1004.850
2017-01-14T18:50:08.956Z,1004.832
2017-01-14T18:53:19.792Z,1004.861
2017-01-14T18:56:17.509Z,1004.869
2017-01-14T18:59:22.161Z,1004.822
2017-01-14T19:05:31.166Z,1004.808
2017-01-14T19:08:35.776Z,1004.829
2017-01-14T19:14:45.405Z,1004.865
2017-01-14T19:17:50.180Z,1004.904
2017-01-14T19:21:01.059Z,1004.914
2017-01-14T19:23:58.740Z,1004.911
2017-01-14T19:27:03.652Z,1004.959
2017-01-14T19:30:08.384Z,1004.942
2017-01-14T19:33:13.091Z,1004.953
2017-01-14T19:36:17.383Z,1004.940
2017-01-14T19:39:22.229Z,1004.948
2017-01-14T19:42:26.532Z,1004.930
2017-01-14T19:51:41.201Z,1005.035
2017-01-14T19:54:45.408Z,1005.071
2017-01-14T19:57:49.890Z,1005.112
2017-01-14T20:03:59.183Z,1005.172
2017-01-14T20:13:13.892Z,1005.193
2017-01-14T20:16:18.629Z,1005.190
2017-01-14T20:19:23.256Z,1005.217
2017-01-14T20:22:27.877Z,1005.208
2017-01-14T20:25:32.330Z,1005.187
2017-01-14T20:28:36.828Z,1005.206
2017-01-14T20:31:41.659Z,1005.181
2017-01-14T20:34:41.368Z,1005.200
2017-01-14T20:37:57.634Z,1005.246
2017-01-14T20:40:56.590Z,1005.293
2017-01-14T20:44:00.745Z,1005.302
2017-01-14T20:47:11.411Z,1005.359
2017-01-14T20:53:21.135Z,1005.432
2017-01-14T20:59:29.067Z,1005.474
2017-01-14T21:02:32.589Z,1005.506
2017-01-14T21:05:36.754Z,1005.499
2017-01-14T21:08:40.903Z,1005.490
2017-01-14T21:11:44.297Z,1005.490
2017-01-14T21:14:48.190Z,1005.462
2017-01-14T21:17:51.920Z,1005.501
2017-01-14T21:20:56.496Z,1005.475
2017-01-14T21:23:53.770Z,1005.438
2017-01-14T21:27:03.964Z,1005.439
2017-01-14T21:30:07.999Z,1005.461
2017-01-14T21:33:11.212Z,1005.510
2017-01-14T21:36:14.812Z,1005.505
2017-01-14T21:39:17.782Z,1005.533
2017-01-14T21:42:16.535Z,1005.550
2017-01-14T21:45:22.335Z,1005.537
2017-01-14T21:48:29.516Z,1005.570
2017-01-14T21:51:22.944Z,1005.566
2017-01-14T21:54:32.628Z,1005.576
2017-01-14T21:57:43.465Z,1005.584
2017-01-14T22:00:47.818Z,1005.603
2017-01-14T22:03:51.447Z,1005.617
2017-01-14T22:06:55.498Z,1005.670
2017-01-14T22:09:59.636Z,1005.724
2017-01-14T22:13:03.360Z,1005.767
2017-01-14T22:16:07.324Z,1005.781
2017-01-14T22:19:06.295Z,1005.770
2017-01-14T22:25:15.191Z,1005.820
2017-01-14T22:31:30.263Z,1005.866
2017-01-14T22:34:35.233Z,1005.904
2017-01-14T22:37:39.237Z,1005.916
2017-01-14T22:43:47.716Z,1005.945
2017-01-14T22:46:45.793Z,1005.975
2017-01-14T22:49:56.362Z,1005.995
2017-01-14T22:52:54.119Z,1005.992
2017-01-14T22:56:04.660Z,1006.015
2017-01-14T23:02:04.513Z,1005.994
2017-01-14T23:05:15.175Z,1005.978
2017-01-14T23:08:13.177Z,1005.982
2017-01-14T23:14:28.861Z,1005.985
2017-01-14T23:17:32.537Z,1006.004
2017-01-14T23:20:30.559Z,1006.055
2017-01-14T23:23:41.028Z,1006.084
2017-01-14T23:26:44.954Z,1006.084
2017-01-14T23:29:48.935Z,1006.113
2017-01-14T23:32:54.241Z,1006.134
2017-01-14T23:35:52.032Z,1006.163
2017-01-14T23:38:56.727Z,1006.189
2017-01-14T23:42:07.368Z,1006.250
2017-01-14T23:48:10.623Z,1006.295
2017-01-14T23:54:25.524Z,1006.292
2017-01-14T23:57:29.305Z,1006.289
